Tuesday, November 13, 2018, 7:30 PM EST
Back to Local

KVSF, Hartness State Airport

Location: Perkinsville, VT, United States Lat: 43.35
Local Time: 7:30 PM EST ( 0:30 GMT) Lon: -72.517
Time Zone: US/Eastern Elev: 577 ft

Show me the last for .
Show Decoded

2018-11-13 18:54 METAR KVSF 132354Z AUTO 29004KT 10SM FEW027 SCT033 03/00 A2989 RMK AO2 SLP127
                 60001 T00280000 10033 20011 51017 =
2018-11-13 18:22 METAR KVSF 132322Z AUTO 30010G17KT 10SM FEW026 03/00 A2987 RMK AO2 T00280000 =
2018-11-13 17:54 METAR KVSF 132254Z AUTO VRB03KT 10SM BKN020 OVC027 03/01 A2986 RMK AO2 SLP119
                 T00280006 =
2018-11-13 16:54 METAR KVSF 132154Z AUTO 27005KT 10SM SCT019 OVC024 03/01 A2987 RMK AO2 SLP121
                 T00280006 =
2018-11-13 16:34 METAR KVSF 132134Z AUTO 29005KT 10SM BKN021 BKN030 OVC110 03/01 A2987 RMK AO2
                 T00280006 =
2018-11-13 16:25 METAR KVSF 132125Z AUTO 30007KT 10SM SCT021 BKN032 OVC110 03/01 A2987 RMK AO2
                 T00280006 =
2018-11-13 16:16 METAR KVSF 132116Z AUTO 30006KT 10SM BKN021 OVC110 03/01 A2986 RMK AO2 T00280006
                 =
2018-11-13 15:54 METAR KVSF 132054Z AUTO 28003KT 10SM FEW018 SCT029 OVC110 03/01 A2984 RMK AO2
                 SLP111 60001 T00280011 55013 =
2018-11-13 14:54 METAR KVSF 131954Z AUTO 00000KT 10SM SCT003 BKN020 OVC110 02/02 A2982 RMK AO2
                 RAE00 SLP105 P0000 T00220022 =
2018-11-13 14:43 METAR KVSF 131943Z AUTO 00000KT 6SM BR BKN003 BKN018 OVC100 02/02 A2982 RMK AO2
                 RAE00 CIG 002V006 P0000 T00220022 =
2018-11-13 14:22 METAR KVSF 131922Z AUTO 17003KT 10SM FEW004 BKN019 OVC085 02/02 A2982 RMK AO2
                 RAE00 P0000 T00170017 =
2018-11-13 13:54 METAR KVSF 131854Z AUTO 00000KT 10SM -RA BKN048 OVC075 02/02 A2983 RMK AO2
                 SLP109 P0001 T00220017 =
2018-11-13 12:54 METAR KVSF 131754Z AUTO 00000KT 10SM -RA SCT013 OVC038 01/01 A2988 RMK AO2
                 SLP124 P0004 60052 I6000 T00110011 10017 20000 56042 =
2018-11-13 12:37 METAR KVSF 131737Z AUTO 00000KT 4SM -RA BR FEW007 BKN012 OVC037 01/01 A2988 RMK
                 AO2 P0004 T00110011 =
2018-11-13 12:29 METAR KVSF 131729Z AUTO 00000KT 2 1/2SM -RA BR FEW007 BKN012 OVC039 01/01 A2988
                 RMK AO2 VIS 2V4 P0004 T00110011 =
2018-11-13 12:17 METAR KVSF 131717Z AUTO 00000KT 1 1/4SM -RA BR SCT007 BKN012 OVC060 01/01 A2989
                 RMK AO2 P0003 T00110011 =
2018-11-13 11:54 METAR KVSF 131654Z AUTO 00000KT 1/2SM RA FG FEW008 BKN039 OVC060 01/01 A2990 RMK
                 AO2 UPE02RAB02 SLP133 P0009 T00060006 =
2018-11-13 11:43 METAR KVSF 131643Z AUTO 00000KT 3/4SM RA BR FEW008 BKN041 OVC050 01/01 A2991 RMK
                 AO2 UPE02RAB02 P0007 T00060006 =
2018-11-13 11:26 METAR KVSF 131626Z AUTO 00000KT 1 1/4SM RA BR FEW010 OVC042 01/01 A2994 RMK AO2
                 UPE02RAB02 P0004 T00060006 =
2018-11-13 11:16 METAR KVSF 131616Z AUTO 00000KT 3/4SM -RA BR FEW011 OVC040 01/01 A2995 RMK AO2
                 UPE02RAB02 P0002 T00060006 =
2018-11-13 11:03 METAR KVSF 131603Z AUTO 00000KT 1 1/2SM -RA BR FEW009 BKN034 OVC044 01/01 A2996
                 RMK AO2 UPE02RAB02 P0001 T00060006 =
2018-11-13 10:54 METAR KVSF 131554Z AUTO 00000KT 1SM UP BR FEW026 BKN034 OVC044 00/00 A2997 RMK
                 AO2 UPE25B54RAB25E54 SLP155 P0009 T00000000 =
2018-11-13 10:46 METAR KVSF 131546Z AUTO 00000KT 1 1/4SM RA BR FEW011 SCT026 OVC034 01/01 A2998
                 RMK AO2 UPE25RAB25 P0007 T00060006 =
2018-11-13 10:32 METAR KVSF 131532Z AUTO 00000KT 1 1/2SM -RA BR OVC028 00/00 A2998 RMK AO2
                 UPE25RAB25 P0005 T00000000 =
2018-11-13 10:15 METAR KVSF 131515Z AUTO 24003KT 1 1/4SM UP BR SCT024 OVC031 00/00 A2999 RMK AO2
                 P0003 T00000000 =
2018-11-13 10:05 METAR KVSF 131505Z AUTO 24003KT 3/4SM UP BR FEW022 OVC031 00/00 A2999 RMK AO2
                 P0002 T00000000 =
2018-11-13 09:54 METAR KVSF 131454Z AUTO 00000KT 1SM UP BR SCT023 OVC027 00/00 A3000 RMK AO2
                 SLP166 P0012 60030 I3000 T00000000 58030 =
2018-11-13 09:41 METAR KVSF 131441Z AUTO 00000KT 3/4SM UP BR FEW003 OVC021 00/00 A3001 RMK AO2
                 P0009 T00000000 =
2018-11-13 09:02 METAR KVSF 131402Z AUTO 00000KT 1SM UP BR FEW002 OVC019 00/00 A3004 RMK AO2
                 P0001 T00000000 =
2018-11-13 08:54 METAR KVSF 131354Z AUTO 00000KT 1 1/4SM UP BR OVC017 00/00 A3005 RMK AO2 SLP183
                 P0008 T00000000 =
2018-11-13 08:35 METAR KVSF 131335Z AUTO 00000KT 1 3/4SM UP BR SCT009 OVC017 00/00 A3004 RMK AO2
                 P0006 T00000000 =
2018-11-13 08:04 METAR KVSF 131304Z AUTO 00000KT 1 1/2SM UP BR BKN007 OVC013 00/00 A3007 RMK AO2
                 P0002 T00000000 =
2018-11-13 07:54 METAR KVSF 131254Z AUTO 28003KT 1 1/2SM UP BR BKN005 OVC013 00/00 A3008 RMK AO2
                 UPE00B25FZRAB00E25 SLP194 P0010 I1000 T00000000 =
2018-11-13 07:31 METAR KVSF 131231Z AUTO 00000KT 1SM UP BR SCT005 OVC014 00/00 A3008 RMK AO2
                 UPE00B25FZRAB00E25 P0006 I1000 T00000000 =
2018-11-13 07:20 METAR KVSF 131220Z AUTO 00000KT 1 3/4SM FZRA BR SCT005 OVC014 00/00 A3009 RMK
                 AO2 UPE00FZRAB00 P0004 I1000 T00000000 =
2018-11-13 07:17 METAR KVSF 131217Z AUTO 00000KT 2SM -FZRA BR SCT005 OVC016 00/00 A3009 RMK AO2
                 UPE00FZRAB00 P0003 I1000 T00000000 =
2018-11-13 07:12 METAR KVSF 131212Z AUTO 00000KT 1 1/2SM -FZRA BR BKN005 OVC017 00/00 A3008 RMK
                 AO2 UPE00FZRAB00 P0003 I1000 T00000000 =
2018-11-13 07:06 METAR KVSF 131206Z AUTO 00000KT 1 1/2SM FZRA BR SCT003 BKN007 OVC017 00/00 A3009
                 RMK AO2 UPE00FZRAB00 P0002 I1000 T00000000 =
2018-11-13 06:59 METAR KVSF 131159Z AUTO 00000KT 1 3/4SM UP BR FEW003 BKN007 OVC017 00/00 A3009
                 RMK AO2 P0001 T00000000 =
2018-11-13 06:54 METAR KVSF 131154Z AUTO 13003KT 2SM UP BR BKN003 BKN007 OVC019 00/00 A3009 RMK
                 AO2 UPE05B52FZRAB05E52 SLP197 P0008 60032 70032 I1001 I6001 T00000000 10006
                 21006 56043 =
2018-11-13 06:52 METAR KVSF 131152Z AUTO 00000KT 2SM UP BR BKN003 BKN007 OVC019 00/00 A3010 RMK
                 AO2 UPE05B52FZRAB05E52 P0008 I1001 =
2018-11-13 06:46 METAR KVSF 131146Z AUTO 00000KT 1 3/4SM -FZRA BR SCT003 BKN007 OVC019 00/00
                 A3010 RMK AO2 UPE05FZRAB05 P0007 I1001 T00000000 =
2018-11-13 06:36 METAR KVSF 131136Z AUTO 11003KT 2SM FZRA BR FEW004 BKN008 OVC021 00/00 A3011 RMK
                 AO2 UPE05FZRAB05 P0005 I1001 T00000000 =
2018-11-13 06:25 METAR KVSF 131125Z AUTO 00000KT 2SM -FZRA BR FEW003 BKN008 OVC019 00/00 A3011
                 RMK AO2 UPE05FZRAB05 P0003 I1001 T00000000 =
2018-11-13 06:12 METAR KVSF 131112Z AUTO 00000KT 2 1/2SM FZRA BR BKN006 BKN016 OVC022 00/00 A3012
                 RMK AO2 UPE05FZRAB05 P0002 I1001 T00000000 =
2018-11-13 06:08 METAR KVSF 131108Z AUTO 00000KT 2 1/2SM -FZRA BR SCT006 BKN018 OVC022 00/00
                 A3012 RMK AO2 UPE05FZRAB05 P0001 I1001 T00000000 =
2018-11-13 05:54 METAR KVSF 131054Z AUTO 00000KT 2SM UP BR BKN006 OVC010 00/00 A3013 RMK AO2
                 UPB38SNE38 SLP211 P0006 T00000000 =
2018-11-13 05:40 METAR KVSF 131040Z AUTO 00000KT 1 3/4SM UP BR OVC006 M01/M01 A3014 RMK AO2
                 UPB38SNE38 P0004 T10061006 =
2018-11-13 05:25 METAR KVSF 131025Z AUTO 00000KT 2 1/2SM -SN BR OVC005 M01/M01 A3015 RMK AO2
                 P0003 T10061006 =
2018-11-13 05:09 METAR KVSF 131009Z AUTO 00000KT 1 1/4SM -SN BR OVC005 00/00 A3016 RMK AO2 P0002
                 T00000000 =
2018-11-13 04:54 METAR KVSF 130954Z AUTO 00000KT 1SM -SN BR OVC004 M01/M01 A3017 RMK AO2 SLP225
                 P0010 T10061006 =
2018-11-13 04:47 METAR KVSF 130947Z AUTO 00000KT 3/4SM -SN BR OVC004 M01/M01 A3018 RMK AO2 P0009
                 T10061006 =
2018-11-13 04:35 METAR KVSF 130935Z AUTO 00000KT 3/4SM -SN BR OVC005 M01/M01 A3019 RMK AO2 P0007
                 T10061006 =
2018-11-13 03:54 METAR KVSF 130854Z AUTO 00000KT 3/4SM -SN BR OVC006 M01/M01 A3022 RMK AO2 SLP240
                 P0008 60008 T10061006 57009 =
2018-11-13 03:52 METAR KVSF 130852Z AUTO 00000KT 3/4SM -SN BR OVC006 M01/M01 A3022 RMK AO2 P0008
                 =
2018-11-13 03:43 METAR KVSF 130843Z AUTO 00000KT 3/4SM -SN BR SCT006 OVC010 00/00 A3023 RMK AO2
                 P0007 T00000000 =
2018-11-13 03:22 METAR KVSF 130822Z AUTO 00000KT 3/4SM -SN BR VV013 00/00 A3024 RMK AO2 P0003
                 T00000000 =
2018-11-13 02:54 METAR KVSF 130754Z AUTO 00000KT 1 1/2SM -SN BR OVC022 00/M01 A3025 RMK AO2 SNB37
                 SLP249 P0000 T00001011 =
2018-11-13 02:51 METAR KVSF 130751Z AUTO 00000KT 1 3/4SM -SN BR OVC024 00/M01 A3025 RMK AO2 SNB37
                 P0000 =
2018-11-13 01:54 METAR KVSF 130654Z AUTO 00000KT 10SM BKN060 OVC075 00/M02 A3027 RMK AO2 SLP254
                 T00001017 =
2018-11-13 00:54 METAR KVSF 130554Z AUTO 00000KT 10SM OVC070 01/M02 A3029 RMK AO2 SLP261
                 T00061022 10006 21006 58018 =
2018-11-12 23:54 METAR KVSF 130454Z AUTO 00000KT 10SM SCT055 OVC075 00/M02 A3031 RMK AO2 SLP269
                 T00001022 400781067 =
2018-11-12 22:54 METAR KVSF 130354Z AUTO 00000KT 10SM OVC075 00/M02 A3033 RMK AO2 SLP276
                 T00001022 =
2018-11-12 21:54 METAR KVSF 130254Z AUTO 00000KT 10SM OVC085 00/M02 A3034 RMK AO2 SLP281
                 T00001022 56003 =
2018-11-12 20:54 METAR KVSF 130154Z AUTO 00000KT 10SM BKN070 OVC090 00/M03 A3034 RMK AO2 SLP283
                 T00001028 =

Support USWX by starting your Amazon purchase here.